sensor_id;sensor_type;location;lat;lon;timestamp;P1;durP1;ratioP1;P2;durP2;ratioP2
61085;SDS011;46967;48.876;2.136;2022-10-20T00:01:47;10.18;;;4.72;;
61085;SDS011;46967;48.876;2.136;2022-10-20T00:04:13;9.93;;;5.30;;
61085;SDS011;46967;48.876;2.136;2022-10-20T00:06:38;7.43;;;5.50;;
61085;SDS011;46967;48.876;2.136;2022-10-20T00:09:04;8.45;;;4.70;;
61085;SDS011;46967;48.876;2.136;2022-10-20T00:11:30;13.70;;;5.10;;
61085;SDS011;46967;48.876;2.136;2022-10-20T00:13:57;7.40;;;5.25;;
61085;SDS011;46967;48.876;2.136;2022-10-20T00:16:24;7.70;;;4.85;;
61085;SDS011;46967;48.876;2.136;2022-10-20T00:18:50;11.15;;;5.35;;
61085;SDS011;46967;48.876;2.136;2022-10-20T00:21:17;9.93;;;5.13;;
61085;SDS011;46967;48.876;2.136;2022-10-20T00:23:44;6.88;;;5.03;;
61085;SDS011;46967;48.876;2.136;2022-10-20T00:26:10;8.15;;;4.88;;
61085;SDS011;46967;48.876;2.136;2022-10-20T00:28:40;7.50;;;4.85;;
61085;SDS011;46967;48.876;2.136;2022-10-20T00:31:05;10.35;;;5.55;;
61085;SDS011;46967;48.876;2.136;2022-10-20T00:33:32;10.35;;;5.18;;
61085;SDS011;46967;48.876;2.136;2022-10-20T00:35:58;11.32;;;4.70;;
61085;SDS011;46967;48.876;2.136;2022-10-20T00:38:24;8.70;;;5.38;;
61085;SDS011;46967;48.876;2.136;2022-10-20T00:40:49;6.38;;;4.65;;
61085;SDS011;46967;48.876;2.136;2022-10-20T00:43:15;9.40;;;4.57;;
61085;SDS011;46967;48.876;2.136;2022-10-20T00:45:42;10.43;;;4.57;;
61085;SDS011;46967;48.876;2.136;2022-10-20T00:48:13;8.25;;;5.03;;
61085;SDS011;46967;48.876;2.136;2022-10-20T00:50:49;12.32;;;4.90;;
61085;SDS011;46967;48.876;2.136;2022-10-20T00:53:16;6.85;;;4.35;;
61085;SDS011;46967;48.876;2.136;2022-10-20T00:55:42;6.85;;;4.75;;
61085;SDS011;46967;48.876;2.136;2022-10-20T00:58:11;7.53;;;4.88;;
61085;SDS011;46967;48.876;2.136;2022-10-20T01:00:37;10.05;;;4.90;;
61085;SDS011;46967;48.876;2.136;2022-10-20T01:03:04;7.68;;;4.50;;
61085;SDS011;46967;48.876;2.136;2022-10-20T01:05:32;11.18;;;4.72;;
61085;SDS011;46967;48.876;2.136;2022-10-20T01:07:58;8.57;;;4.20;;
61085;SDS011;46967;48.876;2.136;2022-10-20T01:10:25;6.97;;;4.75;;
61085;SDS011;46967;48.876;2.136;2022-10-20T01:13:00;10.10;;;4.88;;
61085;SDS011;46967;48.876;2.136;2022-10-20T01:21:01;6.68;;;4.47;;
61085;SDS011;46967;48.876;2.136;2022-10-20T01:26:17;6.63;;;4.05;;
61085;SDS011;46967;48.876;2.136;2022-10-20T01:31:26;7.45;;;4.75;;
61085;SDS011;46967;48.876;2.136;2022-10-20T01:34:05;8.32;;;4.43;;
61085;SDS011;46967;48.876;2.136;2022-10-20T01:36:42;7.07;;;4.20;;
61085;SDS011;46967;48.876;2.136;2022-10-20T01:39:23;7.68;;;4.70;;
61085;SDS011;46967;48.876;2.136;2022-10-20T01:42:04;6.72;;;4.90;;
61085;SDS011;46967;48.876;2.136;2022-10-20T01:44:36;8.27;;;4.82;;
61085;SDS011;46967;48.876;2.136;2022-10-20T01:47:02;8.63;;;4.78;;
61085;SDS011;46967;48.876;2.136;2022-10-20T01:49:29;8.98;;;4.95;;
61085;SDS011;46967;48.876;2.136;2022-10-20T01:51:55;9.75;;;5.30;;
61085;SDS011;46967;48.876;2.136;2022-10-20T01:54:25;10.00;;;4.75;;
61085;SDS011;46967;48.876;2.136;2022-10-20T01:57:06;13.32;;;4.88;;
61085;SDS011;46967;48.876;2.136;2022-10-20T02:00:05;11.75;;;4.90;;
61085;SDS011;46967;48.876;2.136;2022-10-20T02:13:55;14.50;;;3.97;;
61085;SDS011;46967;48.876;2.136;2022-10-20T02:16:25;10.50;;;4.32;;
61085;SDS011;46967;48.876;2.136;2022-10-20T02:18:53;12.38;;;5.18;;
61085;SDS011;46967;48.876;2.136;2022-10-20T02:21:20;10.90;;;4.35;;
61085;SDS011;46967;48.876;2.136;2022-10-20T02:23:45;13.43;;;4.28;;
61085;SDS011;46967;48.876;2.136;2022-10-20T02:26:14;12.05;;;3.75;;
61085;SDS011;46967;48.876;2.136;2022-10-20T02:28:45;12.00;;;3.83;;
61085;SDS011;46967;48.876;2.136;2022-10-20T02:31:13;17.27;;;4.10;;
61085;SDS011;46967;48.876;2.136;2022-10-20T02:33:41;10.40;;;3.33;;
61085;SDS011;46967;48.876;2.136;2022-10-20T02:36:11;13.48;;;3.80;;
61085;SDS011;46967;48.876;2.136;2022-10-20T02:38:39;13.43;;;3.38;;
61085;SDS011;46967;48.876;2.136;2022-10-20T02:41:05;8.98;;;4.03;;
61085;SDS011;46967;48.876;2.136;2022-10-20T02:43:30;13.50;;;3.70;;
61085;SDS011;46967;48.876;2.136;2022-10-20T02:45:55;14.55;;;3.45;;
61085;SDS011;46967;48.876;2.136;2022-10-20T02:48:20;8.48;;;3.28;;
61085;SDS011;46967;48.876;2.136;2022-10-20T02:50:46;12.13;;;3.40;;
61085;SDS011;46967;48.876;2.136;2022-10-20T02:53:11;11.82;;;3.65;;
61085;SDS011;46967;48.876;2.136;2022-10-20T02:55:36;11.73;;;3.40;;
61085;SDS011;46967;48.876;2.136;2022-10-20T02:58:02;8.98;;;3.22;;
61085;SDS011;46967;48.876;2.136;2022-10-20T03:00:27;12.60;;;3.40;;
61085;SDS011;46967;48.876;2.136;2022-10-20T03:02:55;9.43;;;3.10;;
61085;SDS011;46967;48.876;2.136;2022-10-20T03:05:20;9.88;;;3.60;;
61085;SDS011;46967;48.876;2.136;2022-10-20T03:07:45;11.07;;;3.20;;
61085;SDS011;46967;48.876;2.136;2022-10-20T03:10:11;10.30;;;2.67;;
61085;SDS011;46967;48.876;2.136;2022-10-20T03:12:36;11.70;;;2.95;;
61085;SDS011;46967;48.876;2.136;2022-10-20T03:15:01;18.00;;;3.35;;
61085;SDS011;46967;48.876;2.136;2022-10-20T03:17:27;13.73;;;3.00;;
61085;SDS011;46967;48.876;2.136;2022-10-20T03:19:52;11.35;;;3.08;;
61085;SDS011;46967;48.876;2.136;2022-10-20T03:22:18;16.45;;;3.50;;
61085;SDS011;46967;48.876;2.136;2022-10-20T03:24:43;8.93;;;3.25;;
61085;SDS011;46967;48.876;2.136;2022-10-20T03:27:08;9.50;;;3.65;;
61085;SDS011;46967;48.876;2.136;2022-10-20T03:29:34;13.73;;;3.35;;
61085;SDS011;46967;48.876;2.136;2022-10-20T03:31:59;11.32;;;3.03;;
61085;SDS011;46967;48.876;2.136;2022-10-20T03:34:24;8.63;;;2.97;;
61085;SDS011;46967;48.876;2.136;2022-10-20T03:36:50;11.98;;;2.70;;
61085;SDS011;46967;48.876;2.136;2022-10-20T03:39:15;8.70;;;2.35;;
61085;SDS011;46967;48.876;2.136;2022-10-20T03:41:41;11.70;;;2.85;;
61085;SDS011;46967;48.876;2.136;2022-10-20T03:44:06;16.00;;;4.43;;
61085;SDS011;46967;48.876;2.136;2022-10-20T03:46:33;9.85;;;3.28;;
61085;SDS011;46967;48.876;2.136;2022-10-20T03:48:58;12.73;;;3.13;;
61085;SDS011;46967;48.876;2.136;2022-10-20T03:51:24;14.70;;;3.10;;
61085;SDS011;46967;48.876;2.136;2022-10-20T03:53:49;9.23;;;3.45;;
61085;SDS011;46967;48.876;2.136;2022-10-20T03:56:16;10.20;;;3.00;;
61085;SDS011;46967;48.876;2.136;2022-10-20T03:58:42;12.75;;;4.45;;
61085;SDS011;46967;48.876;2.136;2022-10-20T04:01:08;12.85;;;2.88;;
61085;SDS011;46967;48.876;2.136;2022-10-20T04:03:38;8.50;;;3.10;;
61085;SDS011;46967;48.876;2.136;2022-10-20T04:06:03;10.30;;;2.88;;
61085;SDS011;46967;48.876;2.136;2022-10-20T04:08:29;13.95;;;3.13;;
61085;SDS011;46967;48.876;2.136;2022-10-20T04:10:54;9.70;;;3.15;;
61085;SDS011;46967;48.876;2.136;2022-10-20T04:13:19;14.07;;;2.72;;
61085;SDS011;46967;48.876;2.136;2022-10-20T04:15:45;11.73;;;3.22;;
61085;SDS011;46967;48.876;2.136;2022-10-20T04:18:10;11.20;;;2.95;;
61085;SDS011;46967;48.876;2.136;2022-10-20T04:20:35;10.32;;;3.03;;
61085;SDS011;46967;48.876;2.136;2022-10-20T04:23:01;10.88;;;3.00;;
61085;SDS011;46967;48.876;2.136;2022-10-20T04:25:26;12.50;;;2.90;;
61085;SDS011;46967;48.876;2.136;2022-10-20T04:27:51;7.95;;;2.63;;
61085;SDS011;46967;48.876;2.136;2022-10-20T04:30:17;9.10;;;2.90;;
61085;SDS011;46967;48.876;2.136;2022-10-20T04:32:42;10.68;;;2.95;;
61085;SDS011;46967;48.876;2.136;2022-10-20T04:35:08;10.18;;;2.67;;
61085;SDS011;46967;48.876;2.136;2022-10-20T04:37:33;9.73;;;3.10;;
61085;SDS011;46967;48.876;2.136;2022-10-20T04:39:58;7.93;;;3.45;;
61085;SDS011;46967;48.876;2.136;2022-10-20T04:42:24;6.15;;;2.63;;
61085;SDS011;46967;48.876;2.136;2022-10-20T04:44:49;10.52;;;2.58;;
61085;SDS011;46967;48.876;2.136;2022-10-20T04:47:14;10.63;;;2.90;;
61085;SDS011;46967;48.876;2.136;2022-10-20T04:49:40;12.32;;;2.97;;
61085;SDS011;46967;48.876;2.136;2022-10-20T04:52:05;11.38;;;2.95;;
61085;SDS011;46967;48.876;2.136;2022-10-20T04:54:31;10.13;;;3.72;;
61085;SDS011;46967;48.876;2.136;2022-10-20T04:56:56;10.93;;;3.30;;
61085;SDS011;46967;48.876;2.136;2022-10-20T04:59:22;14.65;;;3.35;;
61085;SDS011;46967;48.876;2.136;2022-10-20T05:01:47;11.57;;;3.17;;
61085;SDS011;46967;48.876;2.136;2022-10-20T05:04:13;7.97;;;2.58;;
61085;SDS011;46967;48.876;2.136;2022-10-20T05:06:44;11.02;;;3.08;;
61085;SDS011;46967;48.876;2.136;2022-10-20T05:09:10;12.15;;;3.13;;
61085;SDS011;46967;48.876;2.136;2022-10-20T05:11:36;10.15;;;2.80;;
61085;SDS011;46967;48.876;2.136;2022-10-20T05:14:01;8.77;;;2.58;;
61085;SDS011;46967;48.876;2.136;2022-10-20T05:16:26;9.00;;;3.05;;
61085;SDS011;46967;48.876;2.136;2022-10-20T05:18:52;11.77;;;2.75;;
61085;SDS011;46967;48.876;2.136;2022-10-20T05:21:19;7.97;;;2.88;;
61085;SDS011;46967;48.876;2.136;2022-10-20T05:23:47;9.70;;;3.10;;
61085;SDS011;46967;48.876;2.136;2022-10-20T05:26:14;9.65;;;2.55;;
61085;SDS011;46967;48.876;2.136;2022-10-20T05:28:47;14.75;;;2.63;;
61085;SDS011;46967;48.876;2.136;2022-10-20T05:31:13;13.45;;;2.90;;
61085;SDS011;46967;48.876;2.136;2022-10-20T05:33:43;10.80;;;3.17;;
61085;SDS011;46967;48.876;2.136;2022-10-20T05:36:11;7.78;;;2.90;;
61085;SDS011;46967;48.876;2.136;2022-10-20T05:38:38;11.57;;;2.60;;
61085;SDS011;46967;48.876;2.136;2022-10-20T05:41:14;12.40;;;3.38;;
61085;SDS011;46967;48.876;2.136;2022-10-20T05:43:41;10.60;;;2.63;;
61085;SDS011;46967;48.876;2.136;2022-10-20T05:46:07;9.98;;;2.67;;
61085;SDS011;46967;48.876;2.136;2022-10-20T05:48:33;9.10;;;2.55;;
61085;SDS011;46967;48.876;2.136;2022-10-20T05:51:33;11.38;;;3.22;;
61085;SDS011;46967;48.876;2.136;2022-10-20T05:53:56;12.18;;;2.75;;
61085;SDS011;46967;48.876;2.136;2022-10-20T05:56:23;12.13;;;2.90;;
61085;SDS011;46967;48.876;2.136;2022-10-20T05:58:49;8.30;;;2.88;;
61085;SDS011;46967;48.876;2.136;2022-10-20T06:01:15;6.60;;;2.47;;
61085;SDS011;46967;48.876;2.136;2022-10-20T06:06:17;10.20;;;3.05;;
61085;SDS011;46967;48.876;2.136;2022-10-20T06:08:44;8.32;;;2.60;;
61085;SDS011;46967;48.876;2.136;2022-10-20T06:11:10;8.05;;;3.05;;
61085;SDS011;46967;48.876;2.136;2022-10-20T06:13:36;14.38;;;2.80;;
61085;SDS011;46967;48.876;2.136;2022-10-20T06:16:03;10.15;;;2.70;;
61085;SDS011;46967;48.876;2.136;2022-10-20T06:18:31;7.60;;;2.35;;
61085;SDS011;46967;48.876;2.136;2022-10-20T06:20:58;12.65;;;2.67;;
61085;SDS011;46967;48.876;2.136;2022-10-20T06:23:27;7.15;;;2.35;;
61085;SDS011;46967;48.876;2.136;2022-10-20T06:25:52;10.50;;;2.70;;
61085;SDS011;46967;48.876;2.136;2022-10-20T06:28:18;7.40;;;2.30;;
61085;SDS011;46967;48.876;2.136;2022-10-20T06:30:43;7.35;;;2.10;;
61085;SDS011;46967;48.876;2.136;2022-10-20T06:33:09;4.82;;;2.30;;
61085;SDS011;46967;48.876;2.136;2022-10-20T06:35:36;5.03;;;1.80;;
61085;SDS011;46967;48.876;2.136;2022-10-20T06:38:01;9.20;;;2.17;;
61085;SDS011;46967;48.876;2.136;2022-10-20T06:40:27;7.88;;;1.92;;
61085;SDS011;46967;48.876;2.136;2022-10-20T06:42:52;3.97;;;1.50;;
61085;SDS011;46967;48.876;2.136;2022-10-20T06:45:17;5.35;;;1.92;;
61085;SDS011;46967;48.876;2.136;2022-10-20T06:47:43;11.95;;;2.08;;
61085;SDS011;46967;48.876;2.136;2022-10-20T06:50:08;7.53;;;2.20;;
61085;SDS011;46967;48.876;2.136;2022-10-20T06:52:34;8.73;;;2.33;;
61085;SDS011;46967;48.876;2.136;2022-10-20T06:54:59;9.13;;;1.92;;
61085;SDS011;46967;48.876;2.136;2022-10-20T06:57:24;11.05;;;1.90;;
61085;SDS011;46967;48.876;2.136;2022-10-20T06:59:50;5.57;;;2.22;;
61085;SDS011;46967;48.876;2.136;2022-10-20T07:02:15;7.82;;;1.80;;
61085;SDS011;46967;48.876;2.136;2022-10-20T07:04:41;7.68;;;2.10;;
61085;SDS011;46967;48.876;2.136;2022-10-20T07:07:06;6.13;;;2.10;;
61085;SDS011;46967;48.876;2.136;2022-10-20T07:09:32;7.72;;;2.22;;
61085;SDS011;46967;48.876;2.136;2022-10-20T07:11:57;9.20;;;2.03;;
61085;SDS011;46967;48.876;2.136;2022-10-20T07:14:22;5.75;;;2.05;;
61085;SDS011;46967;48.876;2.136;2022-10-20T07:16:48;7.10;;;2.45;;
61085;SDS011;46967;48.876;2.136;2022-10-20T07:19:13;6.85;;;2.80;;
61085;SDS011;46967;48.876;2.136;2022-10-20T07:21:38;6.93;;;2.00;;
61085;SDS011;46967;48.876;2.136;2022-10-20T07:24:05;5.82;;;2.40;;
61085;SDS011;46967;48.876;2.136;2022-10-20T07:26:32;8.95;;;2.72;;
61085;SDS011;46967;48.876;2.136;2022-10-20T07:28:59;9.43;;;3.42;;
61085;SDS011;46967;48.876;2.136;2022-10-20T07:31:29;9.18;;;2.15;;
61085;SDS011;46967;48.876;2.136;2022-10-20T07:34:02;7.70;;;2.50;;
61085;SDS011;46967;48.876;2.136;2022-10-20T07:36:29;6.50;;;2.25;;
61085;SDS011;46967;48.876;2.136;2022-10-20T07:38:57;5.47;;;2.17;;
61085;SDS011;46967;48.876;2.136;2022-10-20T07:41:24;5.68;;;2.10;;
61085;SDS011;46967;48.876;2.136;2022-10-20T07:43:51;7.35;;;2.75;;
61085;SDS011;46967;48.876;2.136;2022-10-20T07:46:19;7.65;;;2.53;;
61085;SDS011;46967;48.876;2.136;2022-10-20T07:48:44;10.57;;;2.30;;
61085;SDS011;46967;48.876;2.136;2022-10-20T07:53:38;7.43;;;1.90;;
61085;SDS011;46967;48.876;2.136;2022-10-20T07:56:03;7.03;;;2.03;;
61085;SDS011;46967;48.876;2.136;2022-10-20T07:58:29;6.97;;;2.97;;
61085;SDS011;46967;48.876;2.136;2022-10-20T08:00:54;4.32;;;2.05;;
61085;SDS011;46967;48.876;2.136;2022-10-20T08:03:19;8.05;;;2.40;;
61085;SDS011;46967;48.876;2.136;2022-10-20T08:05:45;6.93;;;2.08;;
61085;SDS011;46967;48.876;2.136;2022-10-20T08:08:10;7.20;;;2.15;;
61085;SDS011;46967;48.876;2.136;2022-10-20T08:10:35;3.42;;;2.10;;
61085;SDS011;46967;48.876;2.136;2022-10-20T08:13:01;4.60;;;1.60;;
61085;SDS011;46967;48.876;2.136;2022-10-20T08:15:26;6.82;;;1.90;;
61085;SDS011;46967;48.876;2.136;2022-10-20T08:17:51;7.43;;;1.80;;
61085;SDS011;46967;48.876;2.136;2022-10-20T08:20:17;10.43;;;2.08;;
61085;SDS011;46967;48.876;2.136;2022-10-20T08:22:42;8.30;;;1.88;;
61085;SDS011;46967;48.876;2.136;2022-10-20T08:25:08;3.88;;;1.98;;
61085;SDS011;46967;48.876;2.136;2022-10-20T08:27:37;5.40;;;1.70;;
61085;SDS011;46967;48.876;2.136;2022-10-20T08:30:03;6.43;;;1.42;;
61085;SDS011;46967;48.876;2.136;2022-10-20T08:32:28;5.75;;;1.48;;
61085;SDS011;46967;48.876;2.136;2022-10-20T08:34:54;5.88;;;1.70;;
61085;SDS011;46967;48.876;2.136;2022-10-20T08:37:19;7.78;;;1.70;;
61085;SDS011;46967;48.876;2.136;2022-10-20T08:39:44;4.05;;;1.30;;
61085;SDS011;46967;48.876;2.136;2022-10-20T08:42:10;6.13;;;1.50;;
61085;SDS011;46967;48.876;2.136;2022-10-20T08:44:35;7.00;;;1.58;;
61085;SDS011;46967;48.876;2.136;2022-10-20T08:47:03;4.03;;;1.30;;
61085;SDS011;46967;48.876;2.136;2022-10-20T08:49:38;5.22;;;1.45;;
61085;SDS011;46967;48.876;2.136;2022-10-20T08:52:08;4.03;;;1.30;;
61085;SDS011;46967;48.876;2.136;2022-10-20T08:54:37;6.43;;;1.33;;
61085;SDS011;46967;48.876;2.136;2022-10-20T08:57:04;4.40;;;1.30;;
61085;SDS011;46967;48.876;2.136;2022-10-20T08:59:42;3.38;;;1.20;;
61085;SDS011;46967;48.876;2.136;2022-10-20T09:02:15;5.57;;;1.20;;
61085;SDS011;46967;48.876;2.136;2022-10-20T09:04:48;2.97;;;1.40;;
61085;SDS011;46967;48.876;2.136;2022-10-20T09:09:57;4.05;;;1.20;;
61085;SDS011;46967;48.876;2.136;2022-10-20T09:12:39;3.90;;;1.00;;
61085;SDS011;46967;48.876;2.136;2022-10-20T09:15:08;5.33;;;0.80;;
61085;SDS011;46967;48.876;2.136;2022-10-20T09:17:35;1.92;;;0.85;;
61085;SDS011;46967;48.876;2.136;2022-10-20T09:20:01;8.25;;;1.50;;
61085;SDS011;46967;48.876;2.136;2022-10-20T09:22:27;7.18;;;1.17;;
61085;SDS011;46967;48.876;2.136;2022-10-20T09:24:54;3.28;;;1.10;;
61085;SDS011;46967;48.876;2.136;2022-10-20T09:27:22;4.38;;;0.88;;
61085;SDS011;46967;48.876;2.136;2022-10-20T09:29:55;2.35;;;0.82;;
61085;SDS011;46967;48.876;2.136;2022-10-20T09:32:30;4.47;;;0.82;;
61085;SDS011;46967;48.876;2.136;2022-10-20T09:37:50;3.83;;;1.10;;
61085;SDS011;46967;48.876;2.136;2022-10-20T09:40:16;7.55;;;1.20;;
61085;SDS011;46967;48.876;2.136;2022-10-20T09:42:45;2.42;;;1.08;;
61085;SDS011;46967;48.876;2.136;2022-10-20T09:47:48;3.00;;;1.00;;
61085;SDS011;46967;48.876;2.136;2022-10-20T09:50:19;5.57;;;0.90;;
61085;SDS011;46967;48.876;2.136;2022-10-20T09:52:49;5.85;;;1.00;;
61085;SDS011;46967;48.876;2.136;2022-10-20T09:57:53;4.28;;;1.23;;
61085;SDS011;46967;48.876;2.136;2022-10-20T10:00:21;6.80;;;0.80;;
61085;SDS011;46967;48.876;2.136;2022-10-20T10:05:48;3.25;;;1.05;;
61085;SDS011;46967;48.876;2.136;2022-10-20T10:08:25;3.88;;;0.90;;
61085;SDS011;46967;48.876;2.136;2022-10-20T10:11:36;3.17;;;1.10;;
61085;SDS011;46967;48.876;2.136;2022-10-20T10:13:45;2.92;;;0.75;;
61085;SDS011;46967;48.876;2.136;2022-10-20T10:16:16;2.05;;;0.68;;
61085;SDS011;46967;48.876;2.136;2022-10-20T10:18:45;2.03;;;0.70;;
61085;SDS011;46967;48.876;2.136;2022-10-20T10:21:19;5.15;;;0.82;;
61085;SDS011;46967;48.876;2.136;2022-10-20T10:23:55;3.35;;;0.90;;
61085;SDS011;46967;48.876;2.136;2022-10-20T10:29:14;3.47;;;1.05;;
61085;SDS011;46967;48.876;2.136;2022-10-20T10:31:49;1.98;;;0.60;;
61085;SDS011;46967;48.876;2.136;2022-10-20T10:36:45;2.47;;;0.87;;
61085;SDS011;46967;48.876;2.136;2022-10-20T10:39:14;4.07;;;0.80;;
61085;SDS011;46967;48.876;2.136;2022-10-20T10:42:02;4.47;;;1.02;;
61085;SDS011;46967;48.876;2.136;2022-10-20T10:55:38;2.47;;;0.60;;
61085;SDS011;46967;48.876;2.136;2022-10-20T11:06:21;3.47;;;0.80;;
61085;SDS011;46967;48.876;2.136;2022-10-20T11:11:58;2.88;;;0.80;;
61085;SDS011;46967;48.876;2.136;2022-10-20T11:28:44;3.20;;;0.60;;
61085;SDS011;46967;48.876;2.136;2022-10-20T11:34:18;2.70;;;0.50;;
61085;SDS011;46967;48.876;2.136;2022-10-20T11:36:59;3.80;;;0.50;;
61085;SDS011;46967;48.876;2.136;2022-10-20T11:39:33;1.33;;;0.60;;
61085;SDS011;46967;48.876;2.136;2022-10-20T11:42:10;2.80;;;0.50;;
61085;SDS011;46967;48.876;2.136;2022-10-20T11:44:44;2.28;;;0.70;;
61085;SDS011;46967;48.876;2.136;2022-10-20T11:47:13;1.48;;;0.60;;
61085;SDS011;46967;48.876;2.136;2022-10-20T11:49:41;3.38;;;0.77;;
61085;SDS011;46967;48.876;2.136;2022-10-20T11:57:15;2.92;;;1.13;;
61085;SDS011;46967;48.876;2.136;2022-10-20T12:00:24;1.67;;;0.70;;
61085;SDS011;46967;48.876;2.136;2022-10-20T12:14:10;3.47;;;0.83;;
61085;SDS011;46967;48.876;2.136;2022-10-20T12:16:57;2.92;;;1.75;;
61085;SDS011;46967;48.876;2.136;2022-10-20T12:19:30;2.83;;;0.85;;
61085;SDS011;46967;48.876;2.136;2022-10-20T12:22:05;2.50;;;1.02;;
61085;SDS011;46967;48.876;2.136;2022-10-20T12:27:25;3.15;;;0.98;;
61085;SDS011;46967;48.876;2.136;2022-10-20T12:29:58;6.10;;;0.98;;
61085;SDS011;46967;48.876;2.136;2022-10-20T12:34:57;1.92;;;0.90;;
61085;SDS011;46967;48.876;2.136;2022-10-20T12:37:28;3.13;;;1.05;;
61085;SDS011;46967;48.876;2.136;2022-10-20T12:39:55;2.08;;;0.80;;
61085;SDS011;46967;48.876;2.136;2022-10-20T12:42:47;1.58;;;0.60;;
61085;SDS011;46967;48.876;2.136;2022-10-20T12:47:50;3.72;;;0.80;;
61085;SDS011;46967;48.876;2.136;2022-10-20T12:53:18;2.08;;;0.90;;
61085;SDS011;46967;48.876;2.136;2022-10-20T12:55:47;3.03;;;0.80;;
61085;SDS011;46967;48.876;2.136;2022-10-20T13:16:36;2.65;;;0.95;;
61085;SDS011;46967;48.876;2.136;2022-10-20T13:19:07;0.80;;;0.45;;
61085;SDS011;46967;48.876;2.136;2022-10-20T13:21:37;3.40;;;0.77;;
61085;SDS011;46967;48.876;2.136;2022-10-20T13:24:05;2.05;;;0.70;;
61085;SDS011;46967;48.876;2.136;2022-10-20T13:26:42;3.55;;;0.70;;
61085;SDS011;46967;48.876;2.136;2022-10-20T13:29:33;4.28;;;0.85;;
61085;SDS011;46967;48.876;2.136;2022-10-20T13:32:21;5.78;;;0.98;;
61085;SDS011;46967;48.876;2.136;2022-10-20T13:35:10;1.30;;;0.70;;
61085;SDS011;46967;48.876;2.136;2022-10-20T13:40:44;4.85;;;0.90;;
61085;SDS011;46967;48.876;2.136;2022-10-20T13:43:27;1.77;;;0.70;;
61085;SDS011;46967;48.876;2.136;2022-10-20T13:51:09;6.63;;;0.85;;
61085;SDS011;46967;48.876;2.136;2022-10-20T13:53:38;5.80;;;0.85;;
61085;SDS011;46967;48.876;2.136;2022-10-20T14:01:29;4.22;;;0.93;;
61085;SDS011;46967;48.876;2.136;2022-10-20T14:03:56;5.55;;;1.25;;
61085;SDS011;46967;48.876;2.136;2022-10-20T14:06:32;2.72;;;0.95;;
61085;SDS011;46967;48.876;2.136;2022-10-20T14:12:16;5.72;;;1.20;;
61085;SDS011;46967;48.876;2.136;2022-10-20T14:14:44;4.65;;;1.02;;
61085;SDS011;46967;48.876;2.136;2022-10-20T14:17:22;7.20;;;1.27;;
61085;SDS011;46967;48.876;2.136;2022-10-20T14:19:49;7.00;;;1.10;;
61085;SDS011;46967;48.876;2.136;2022-10-20T14:22:19;6.60;;;0.93;;
61085;SDS011;46967;48.876;2.136;2022-10-20T14:24:47;4.22;;;1.45;;
61085;SDS011;46967;48.876;2.136;2022-10-20T14:27:19;3.22;;;1.08;;
61085;SDS011;46967;48.876;2.136;2022-10-20T14:29:50;4.22;;;1.30;;
61085;SDS011;46967;48.876;2.136;2022-10-20T14:32:20;5.22;;;1.40;;
61085;SDS011;46967;48.876;2.136;2022-10-20T14:37:30;7.25;;;1.48;;
61085;SDS011;46967;48.876;2.136;2022-10-20T14:40:03;6.10;;;1.17;;
61085;SDS011;46967;48.876;2.136;2022-10-20T14:42:31;8.40;;;1.25;;
61085;SDS011;46967;48.876;2.136;2022-10-20T14:44:58;6.20;;;1.13;;
61085;SDS011;46967;48.876;2.136;2022-10-20T14:47:38;12.93;;;1.38;;
61085;SDS011;46967;48.876;2.136;2022-10-20T14:50:06;3.80;;;1.20;;
61085;SDS011;46967;48.876;2.136;2022-10-20T14:52:32;5.82;;;1.27;;
61085;SDS011;46967;48.876;2.136;2022-10-20T14:55:24;7.20;;;1.50;;
61085;SDS011;46967;48.876;2.136;2022-10-20T14:57:58;3.97;;;0.98;;
61085;SDS011;46967;48.876;2.136;2022-10-20T15:02:57;3.80;;;1.10;;
61085;SDS011;46967;48.876;2.136;2022-10-20T15:10:44;4.43;;;1.50;;
61085;SDS011;46967;48.876;2.136;2022-10-20T15:15:57;7.60;;;1.40;;
61085;SDS011;46967;48.876;2.136;2022-10-20T15:18:23;5.45;;;1.42;;
61085;SDS011;46967;48.876;2.136;2022-10-20T15:20:50;4.57;;;1.30;;
61085;SDS011;46967;48.876;2.136;2022-10-20T15:23:17;4.82;;;1.40;;
61085;SDS011;46967;48.876;2.136;2022-10-20T15:25:46;7.28;;;1.50;;
61085;SDS011;46967;48.876;2.136;2022-10-20T15:28:33;6.28;;;1.25;;
61085;SDS011;46967;48.876;2.136;2022-10-20T15:31:01;5.20;;;1.23;;
61085;SDS011;46967;48.876;2.136;2022-10-20T15:33:29;5.25;;;1.67;;
61085;SDS011;46967;48.876;2.136;2022-10-20T15:35:54;7.07;;;1.27;;
61085;SDS011;46967;48.876;2.136;2022-10-20T15:38:19;5.65;;;1.50;;
61085;SDS011;46967;48.876;2.136;2022-10-20T15:40:45;4.07;;;1.30;;
61085;SDS011;46967;48.876;2.136;2022-10-20T15:43:11;4.10;;;1.33;;
61085;SDS011;46967;48.876;2.136;2022-10-20T15:45:39;5.05;;;1.23;;
61085;SDS011;46967;48.876;2.136;2022-10-20T15:48:07;7.32;;;1.73;;
61085;SDS011;46967;48.876;2.136;2022-10-20T15:50:33;3.75;;;1.02;;
61085;SDS011;46967;48.876;2.136;2022-10-20T15:52:59;5.22;;;1.23;;
61085;SDS011;46967;48.876;2.136;2022-10-20T15:55:34;4.47;;;1.30;;
61085;SDS011;46967;48.876;2.136;2022-10-20T15:58:02;3.97;;;1.23;;
61085;SDS011;46967;48.876;2.136;2022-10-20T16:00:28;5.30;;;1.27;;
61085;SDS011;46967;48.876;2.136;2022-10-20T16:02:53;10.02;;;2.13;;
61085;SDS011;46967;48.876;2.136;2022-10-20T16:05:20;5.82;;;1.75;;
61085;SDS011;46967;48.876;2.136;2022-10-20T16:07:47;4.65;;;1.27;;
61085;SDS011;46967;48.876;2.136;2022-10-20T16:10:13;9.20;;;2.28;;
61085;SDS011;46967;48.876;2.136;2022-10-20T16:12:38;5.25;;;1.30;;
61085;SDS011;46967;48.876;2.136;2022-10-20T16:15:05;6.28;;;1.67;;
61085;SDS011;46967;48.876;2.136;2022-10-20T16:17:32;4.10;;;1.40;;
61085;SDS011;46967;48.876;2.136;2022-10-20T16:19:58;4.32;;;1.38;;
61085;SDS011;46967;48.876;2.136;2022-10-20T16:22:23;4.38;;;1.30;;
61085;SDS011;46967;48.876;2.136;2022-10-20T16:24:50;6.47;;;1.27;;
61085;SDS011;46967;48.876;2.136;2022-10-20T16:27:16;8.57;;;1.58;;
61085;SDS011;46967;48.876;2.136;2022-10-20T16:29:41;7.15;;;1.67;;
61085;SDS011;46967;48.876;2.136;2022-10-20T16:32:06;5.13;;;1.40;;
61085;SDS011;46967;48.876;2.136;2022-10-20T16:34:32;5.55;;;1.40;;
61085;SDS011;46967;48.876;2.136;2022-10-20T16:36:57;8.02;;;1.65;;
61085;SDS011;46967;48.876;2.136;2022-10-20T16:39:22;5.95;;;2.15;;
61085;SDS011;46967;48.876;2.136;2022-10-20T16:41:48;4.57;;;1.60;;
61085;SDS011;46967;48.876;2.136;2022-10-20T16:44:13;5.05;;;1.40;;
61085;SDS011;46967;48.876;2.136;2022-10-20T16:46:38;8.15;;;1.52;;
61085;SDS011;46967;48.876;2.136;2022-10-20T16:49:04;4.97;;;1.42;;
61085;SDS011;46967;48.876;2.136;2022-10-20T16:51:30;5.32;;;1.70;;
61085;SDS011;46967;48.876;2.136;2022-10-20T16:53:56;7.85;;;1.33;;
61085;SDS011;46967;48.876;2.136;2022-10-20T16:56:22;7.57;;;1.73;;
61085;SDS011;46967;48.876;2.136;2022-10-20T16:58:48;9.18;;;2.72;;
61085;SDS011;46967;48.876;2.136;2022-10-20T17:01:15;11.43;;;1.88;;
61085;SDS011;46967;48.876;2.136;2022-10-20T17:03:45;7.18;;;2.20;;
61085;SDS011;46967;48.876;2.136;2022-10-20T17:06:13;8.90;;;2.47;;
61085;SDS011;46967;48.876;2.136;2022-10-20T17:08:40;6.32;;;1.83;;
61085;SDS011;46967;48.876;2.136;2022-10-20T17:11:09;6.30;;;1.83;;
61085;SDS011;46967;48.876;2.136;2022-10-20T17:13:36;7.97;;;2.15;;
61085;SDS011;46967;48.876;2.136;2022-10-20T17:16:13;9.93;;;1.90;;
61085;SDS011;46967;48.876;2.136;2022-10-20T17:18:40;7.25;;;1.60;;
61085;SDS011;46967;48.876;2.136;2022-10-20T17:21:06;5.30;;;1.88;;
61085;SDS011;46967;48.876;2.136;2022-10-20T17:23:35;5.63;;;1.30;;
61085;SDS011;46967;48.876;2.136;2022-10-20T17:26:03;9.55;;;1.88;;
61085;SDS011;46967;48.876;2.136;2022-10-20T17:28:30;5.78;;;1.65;;
61085;SDS011;46967;48.876;2.136;2022-10-20T17:30:56;6.70;;;1.35;;
61085;SDS011;46967;48.876;2.136;2022-10-20T17:33:25;5.70;;;1.33;;
61085;SDS011;46967;48.876;2.136;2022-10-20T17:35:53;3.92;;;1.10;;